createdAt,value
2022-12-11T00:06:49.967Z,96235.66
2022-12-11T00:09:18.551Z,96242.00
2022-12-11T00:11:45.106Z,96245.72
2022-12-11T00:14:13.770Z,96241.03
2022-12-11T00:16:40.306Z,96247.00
2022-12-11T00:24:26.954Z,96232.03
2022-12-11T00:56:29.467Z,96244.09
2022-12-11T00:58:55.943Z,96242.69
2022-12-11T01:01:22.365Z,96244.50
2022-12-11T01:03:52.468Z,96243.56
2022-12-11T01:06:18.888Z,96240.31
2022-12-11T01:08:45.290Z,96243.44
2022-12-11T01:11:11.745Z,96246.09
2022-12-11T01:13:38.177Z,96241.78
2022-12-11T01:16:04.535Z,96246.09
2022-12-11T01:18:31.074Z,96245.50
2022-12-11T01:20:57.450Z,96250.00
2022-12-11T01:23:23.810Z,96252.22
2022-12-11T01:25:50.458Z,96256.22
2022-12-11T01:28:16.884Z,96263.66
2022-12-11T01:30:43.336Z,96260.31
2022-12-11T01:33:09.810Z,96262.94
2022-12-11T01:35:36.159Z,96263.06
2022-12-11T01:38:02.615Z,96272.69
2022-12-11T01:40:29.254Z,96277.03
2022-12-11T01:42:55.698Z,96277.88
2022-12-11T01:45:23.826Z,96285.09
2022-12-11T01:47:55.183Z,96283.03
2022-12-11T01:50:21.566Z,96278.13
2022-12-11T01:52:50.382Z,96273.63
2022-12-11T01:55:16.833Z,96277.94
2022-12-11T01:57:43.212Z,96277.50
2022-12-11T02:00:09.620Z,96281.44
2022-12-11T02:02:36.030Z,96279.38
2022-12-11T02:05:02.493Z,96274.88
2022-12-11T02:07:31.830Z,96275.47
2022-12-11T02:09:58.198Z,96270.97
2022-12-11T02:12:24.569Z,96274.06
2022-12-11T02:14:50.921Z,96268.31
2022-12-11T02:17:19.769Z,96266.66
2022-12-11T02:19:46.225Z,96266.66
2022-12-11T02:22:12.668Z,96272.91
2022-12-11T02:24:39.089Z,96270.25
2022-12-11T02:27:05.467Z,96269.44
2022-12-11T02:29:31.892Z,96275.59
2022-12-11T02:31:58.319Z,96271.84
2022-12-11T02:34:27.135Z,96265.28
2022-12-11T02:36:57.869Z,96258.06
2022-12-11T02:39:24.301Z,96265.16
2022-12-11T02:41:50.687Z,96265.13
2022-12-11T02:44:17.046Z,96268.13
2022-12-11T02:46:43.445Z,96271.56
2022-12-11T02:49:09.782Z,96270.47
2022-12-11T02:51:36.313Z,96262.41
2022-12-11T02:54:02.758Z,96267.22
2022-12-11T02:56:29.151Z,96272.59
2022-12-11T02:58:58.814Z,96275.19
2022-12-11T03:01:25.394Z,96272.00
2022-12-11T03:03:51.816Z,96272.19
2022-12-11T03:06:18.203Z,96279.25
2022-12-11T03:08:44.596Z,96290.88
2022-12-11T03:11:13.828Z,96294.75
2022-12-11T03:13:40.205Z,96291.47
2022-12-11T03:16:06.620Z,96285.38
2022-12-11T03:18:33.102Z,96298.78
2022-12-11T03:21:00.590Z,96295.66
2022-12-11T03:23:26.994Z,96294.84
2022-12-11T03:25:53.399Z,96299.22
2022-12-11T03:28:19.802Z,96290.44
2022-12-11T03:30:46.469Z,96270.31
2022-12-11T03:33:12.873Z,96274.97
2022-12-11T03:35:39.207Z,96270.28
2022-12-11T03:38:05.595Z,96276.22
2022-12-11T03:40:32.017Z,96269.91
2022-12-11T03:42:58.429Z,96262.22
2022-12-11T03:45:24.893Z,96266.34
2022-12-11T03:47:51.238Z,96280.16
2022-12-11T03:50:17.635Z,96273.47
2022-12-11T03:52:45.993Z,96275.50
2022-12-11T03:55:12.923Z,96277.25
2022-12-11T03:57:39.380Z,96277.53
2022-12-11T04:00:05.708Z,96280.28
2022-12-11T04:02:32.099Z,96284.69
2022-12-11T04:04:58.464Z,96278.28
2022-12-11T04:07:24.880Z,96280.19
2022-12-11T04:09:51.587Z,96282.66
2022-12-11T04:12:18.000Z,96280.28
2022-12-11T04:14:44.374Z,96272.97
2022-12-11T04:17:12.383Z,96275.44
2022-12-11T04:19:38.738Z,96286.13
2022-12-11T04:22:05.115Z,96283.75
2022-12-11T04:24:31.614Z,96279.84
2022-12-11T04:26:58.025Z,96283.13
2022-12-11T04:29:24.375Z,96281.09
2022-12-11T04:31:50.767Z,96284.59
2022-12-11T04:34:17.140Z,96277.00
2022-12-11T04:36:43.664Z,96283.94
2022-12-11T04:39:10.040Z,96282.13
2022-12-11T04:41:36.424Z,96278.09
2022-12-11T04:44:02.838Z,96272.66
2022-12-11T04:46:31.623Z,96276.06
2022-12-11T04:48:58.149Z,96279.34
2022-12-11T04:51:24.617Z,96279.00
2022-12-11T04:53:50.983Z,96280.81
2022-12-11T04:56:17.399Z,96283.56
2022-12-11T04:58:43.818Z,96273.69
2022-12-11T05:01:10.224Z,96271.75
2022-12-11T05:03:36.660Z,96270.94
2022-12-11T05:06:03.086Z,96266.00
2022-12-11T05:08:29.495Z,96268.91
2022-12-11T05:10:55.893Z,96269.38
2022-12-11T05:13:22.316Z,96268.00
2022-12-11T05:15:51.822Z,96261.22
2022-12-11T05:18:18.224Z,96260.22
2022-12-11T05:20:44.692Z,96260.94
2022-12-11T05:23:12.323Z,96261.22
2022-12-11T05:25:38.706Z,96256.72
2022-12-11T05:28:06.195Z,96257.56
2022-12-11T05:30:32.530Z,96253.25
2022-12-11T05:32:58.932Z,96257.75
2022-12-11T05:35:25.289Z,96248.50
2022-12-11T05:37:54.844Z,96261.78
2022-12-11T05:40:21.224Z,96258.94
2022-12-11T05:42:47.770Z,96259.50
2022-12-11T05:45:14.285Z,96251.72
2022-12-11T05:47:40.815Z,96268.47
2022-12-11T05:50:07.192Z,96253.53
2022-12-11T05:52:33.562Z,96252.06
2022-12-11T05:55:00.105Z,96248.97
2022-12-11T05:57:26.433Z,96253.63
2022-12-11T05:59:56.101Z,96256.66
2022-12-11T06:02:22.641Z,96254.09
2022-12-11T06:04:49.016Z,96266.75
2022-12-11T06:07:15.434Z,96249.16
2022-12-11T06:09:41.877Z,96254.47
2022-12-11T06:12:33.608Z,96255.34
2022-12-11T06:15:01.125Z,96249.78
2022-12-11T06:17:27.527Z,96241.16
2022-12-11T06:19:53.974Z,96246.59
2022-12-11T06:22:20.315Z,96243.28
2022-12-11T06:24:46.730Z,96241.63
2022-12-11T06:27:13.125Z,96256.91
2022-12-11T06:29:39.630Z,96258.28
2022-12-11T06:32:06.023Z,96258.16
2022-12-11T06:34:32.464Z,96257.03
2022-12-11T06:36:58.875Z,96261.09
2022-12-11T06:39:26.717Z,96261.41
2022-12-11T06:41:53.064Z,96260.06
2022-12-11T06:44:19.457Z,96267.56
2022-12-11T06:46:46.054Z,96278.63
2022-12-11T06:49:12.431Z,96272.22
2022-12-11T06:51:38.763Z,96272.13
2022-12-11T06:54:05.118Z,96274.78
2022-12-11T06:56:32.921Z,96286.56
2022-12-11T06:59:04.242Z,96278.06
2022-12-11T07:01:33.407Z,96281.84
2022-12-11T07:03:59.805Z,96276.28
2022-12-11T07:06:26.172Z,96288.56
2022-12-11T07:08:52.533Z,96277.22
2022-12-11T07:11:19.179Z,96289.47
2022-12-11T07:13:45.554Z,96281.53
2022-12-11T07:16:11.974Z,96288.31
2022-12-11T07:18:38.401Z,96283.06
2022-12-11T07:21:04.762Z,96276.78
2022-12-11T07:23:31.175Z,96287.38
2022-12-11T07:25:57.539Z,96294.06
2022-12-11T07:28:23.881Z,96291.78
2022-12-11T07:30:50.334Z,96295.59
2022-12-11T07:33:16.677Z,96291.47
2022-12-11T07:35:43.039Z,96289.84
2022-12-11T07:38:09.371Z,96289.00
2022-12-11T07:40:37.027Z,96296.97
2022-12-11T07:43:03.391Z,96292.19
2022-12-11T07:45:29.827Z,96294.50
2022-12-11T07:47:56.205Z,96295.47
2022-12-11T07:50:22.523Z,96293.69
2022-12-11T07:52:48.919Z,96296.69
2022-12-11T07:55:15.282Z,96295.22
2022-12-11T07:57:41.647Z,96295.41
2022-12-11T08:00:08.049Z,96288.31
2022-12-11T08:02:37.427Z,96293.63
2022-12-11T08:05:04.287Z,96283.00
2022-12-11T08:07:30.810Z,96278.72
2022-12-11T08:09:57.218Z,96276.06
2022-12-11T08:12:23.566Z,96279.72
2022-12-11T08:14:49.886Z,96292.97
2022-12-11T08:17:16.270Z,96280.53
2022-12-11T08:19:42.630Z,96281.19
2022-12-11T08:22:08.991Z,96287.94
2022-12-11T08:24:37.474Z,96296.94
2022-12-11T08:27:03.949Z,96300.88
2022-12-11T08:29:30.866Z,96297.88
2022-12-11T08:31:57.265Z,96292.56
2022-12-11T08:34:23.784Z,96295.22
2022-12-11T08:36:50.162Z,96294.56
2022-12-11T08:39:16.494Z,96290.72
2022-12-11T08:41:42.822Z,96289.91
2022-12-11T08:44:12.989Z,96290.34
2022-12-11T08:46:42.587Z,96287.72
2022-12-11T08:49:11.424Z,96290.00
2022-12-11T08:51:37.892Z,96290.47
2022-12-11T08:54:04.295Z,96292.94
2022-12-11T08:56:30.678Z,96280.50
2022-12-11T08:58:57.070Z,96269.53
2022-12-11T09:01:23.540Z,96270.34
2022-12-11T09:03:50.011Z,96264.88
2022-12-11T09:06:18.810Z,96262.41
2022-12-11T09:08:51.712Z,96262.75
2022-12-11T09:11:18.577Z,96264.25
2022-12-11T09:13:44.955Z,96265.88
2022-12-11T09:16:12.407Z,96275.31
2022-12-11T09:18:38.964Z,96263.03
2022-12-11T09:21:05.418Z,96268.88
2022-12-11T09:23:31.848Z,96266.34
2022-12-11T09:25:58.300Z,96269.44
2022-12-11T09:28:24.781Z,96265.59
2022-12-11T09:30:57.170Z,96272.38
2022-12-11T09:33:24.500Z,96270.56
2022-12-11T09:35:50.902Z,96264.72
2022-12-11T09:38:17.287Z,96261.31
2022-12-11T09:40:43.687Z,96262.13
2022-12-11T09:43:10.073Z,96257.13
2022-12-11T09:45:36.557Z,96257.38
2022-12-11T09:48:02.951Z,96252.34
2022-12-11T09:50:29.409Z,96250.19
2022-12-11T09:52:55.891Z,96258.28
2022-12-11T09:55:25.013Z,96260.44
2022-12-11T09:57:51.458Z,96259.88
2022-12-11T10:00:18.012Z,96265.81
2022-12-11T10:02:44.538Z,96273.31
2022-12-11T10:05:11.347Z,96268.09
2022-12-11T10:07:38.004Z,96270.66
2022-12-11T10:10:04.642Z,96270.19
2022-12-11T10:12:32.221Z,96267.25
2022-12-11T10:15:00.489Z,96266.31
2022-12-11T10:17:26.888Z,96266.19
2022-12-11T10:19:55.589Z,96264.25
2022-12-11T10:22:22.096Z,96266.22
2022-12-11T10:27:34.878Z,96249.28
2022-12-11T10:30:01.298Z,96247.28
2022-12-11T10:32:32.156Z,96247.72
2022-12-11T10:34:58.649Z,96239.38
2022-12-11T10:37:25.080Z,96245.31
2022-12-11T10:39:54.267Z,96238.53
2022-12-11T10:42:20.758Z,96238.16
2022-12-11T10:44:47.282Z,96236.16
2022-12-11T10:47:13.746Z,96230.53
2022-12-11T10:49:41.359Z,96227.66
2022-12-11T10:52:10.541Z,96234.41
2022-12-11T10:54:39.250Z,96229.59
2022-12-11T10:57:05.661Z,96225.69
2022-12-11T10:59:32.153Z,96226.63
2022-12-11T11:01:58.821Z,96223.88
2022-12-11T11:04:25.373Z,96223.56
2022-12-11T11:06:54.483Z,96226.34
2022-12-11T11:09:20.873Z,96227.25
2022-12-11T11:11:47.252Z,96226.69
2022-12-11T11:14:13.669Z,96225.94
2022-12-11T11:16:40.099Z,96226.56
2022-12-11T11:19:09.554Z,96223.66
2022-12-11T11:21:38.675Z,96219.69
2022-12-11T11:24:05.144Z,96223.53
2022-12-11T11:26:56.689Z,96220.50
2022-12-11T11:29:17.938Z,96220.25
2022-12-11T11:31:48.732Z,96223.22
2022-12-11T11:34:19.560Z,96215.78
2022-12-11T11:36:45.969Z,96208.00
2022-12-11T11:39:15.314Z,96217.91
2022-12-11T11:41:41.674Z,96220.06
2022-12-11T11:44:11.142Z,96218.31
2022-12-11T11:46:48.208Z,96208.88
2022-12-11T11:49:14.598Z,96213.25
2022-12-11T11:51:40.955Z,96203.00
2022-12-11T11:54:10.409Z,96204.38
2022-12-11T11:56:36.851Z,96210.53
2022-12-11T11:59:03.351Z,96195.59
2022-12-11T12:01:29.795Z,96203.00
2022-12-11T12:04:03.809Z,96196.91
2022-12-11T12:06:30.203Z,96201.56
2022-12-11T12:08:56.637Z,96195.16
2022-12-11T12:11:23.007Z,96195.72
2022-12-11T12:13:50.332Z,96176.19
2022-12-11T12:16:50.507Z,96190.69
2022-12-11T12:19:06.568Z,96184.66
2022-12-11T12:21:33.055Z,96179.84
2022-12-11T12:23:59.532Z,96186.63
2022-12-11T12:26:25.968Z,96177.97
2022-12-11T12:28:52.390Z,96177.56
2022-12-11T12:31:20.072Z,96184.59
2022-12-11T12:33:46.620Z,96175.22
2022-12-11T12:36:13.248Z,96190.88
2022-12-11T12:38:39.752Z,96168.03
2022-12-11T12:41:06.343Z,96181.94
2022-12-11T12:43:32.889Z,96181.72
2022-12-11T12:45:59.424Z,96183.50
2022-12-11T12:48:27.205Z,96186.81
2022-12-11T12:50:53.629Z,96187.19
2022-12-11T12:53:20.035Z,96186.28
2022-12-11T12:55:46.455Z,96178.06
2022-12-11T12:58:12.916Z,96189.22
2022-12-11T13:00:39.325Z,96191.78
2022-12-11T13:03:05.840Z,96185.84
2022-12-11T13:05:32.297Z,96190.31
2022-12-11T13:07:58.694Z,96182.19
2022-12-11T13:10:25.118Z,96182.25
2022-12-11T13:12:51.478Z,96184.28
2022-12-11T13:15:18.005Z,96178.13
2022-12-11T13:17:44.372Z,96174.81
2022-12-11T13:20:10.941Z,96169.31
2022-12-11T13:22:37.462Z,96169.03
2022-12-11T13:25:04.359Z,96170.56
2022-12-11T13:27:30.808Z,96172.50
2022-12-11T13:29:57.181Z,96171.28
2022-12-11T13:32:23.555Z,96175.38
2022-12-11T13:34:50.206Z,96169.03
2022-12-11T13:37:16.593Z,96169.72
2022-12-11T13:39:45.110Z,96176.38
2022-12-11T13:42:17.275Z,96164.44
2022-12-11T13:44:43.832Z,96169.00
2022-12-11T13:47:10.231Z,96169.44
2022-12-11T13:49:36.694Z,96172.75
2022-12-11T13:52:03.075Z,96160.53
2022-12-11T13:54:29.484Z,96166.69
2022-12-11T13:56:56.008Z,96157.94
2022-12-11T13:59:22.438Z,96161.44
2022-12-11T14:01:48.889Z,96162.31
2022-12-11T14:04:15.360Z,96159.97
2022-12-11T14:06:41.722Z,96160.78
2022-12-11T14:09:08.310Z,96162.13
2022-12-11T14:11:34.794Z,96159.66
2022-12-11T14:14:01.204Z,96160.84
2022-12-11T14:16:27.630Z,96156.16
2022-12-11T14:18:54.185Z,96156.69
2022-12-11T14:21:20.585Z,96153.38
2022-12-11T14:23:47.044Z,96152.19
2022-12-11T14:26:13.395Z,96156.31
2022-12-11T14:28:39.808Z,96157.25
2022-12-11T14:31:06.156Z,96160.75
2022-12-11T14:33:32.546Z,96157.03
2022-12-11T14:35:59.273Z,96158.78
2022-12-11T14:38:25.715Z,96154.03
2022-12-11T14:40:52.049Z,96148.84
2022-12-11T14:43:18.403Z,96142.94
2022-12-11T14:45:44.833Z,96149.66
2022-12-11T14:48:11.380Z,96152.00
2022-12-11T14:50:37.766Z,96147.75
2022-12-11T14:53:04.228Z,96148.19
2022-12-11T14:55:30.946Z,96141.47
2022-12-11T14:57:57.393Z,96149.44
2022-12-11T15:00:23.873Z,96142.09
2022-12-11T15:02:50.272Z,96142.50
2022-12-11T15:05:16.640Z,96142.50
2022-12-11T15:07:43.005Z,96143.31
2022-12-11T15:10:09.526Z,96140.84
2022-12-11T15:12:35.943Z,96133.47
2022-12-11T15:15:02.315Z,96142.09
2022-12-11T15:17:28.706Z,96142.09
2022-12-11T15:19:55.113Z,96143.88
2022-12-11T15:22:21.577Z,96146.88
2022-12-11T15:24:48.017Z,96147.06
2022-12-11T15:27:14.575Z,96150.69
2022-12-11T15:29:40.914Z,96150.31
2022-12-11T15:32:07.256Z,96155.25
2022-12-11T15:34:33.672Z,96152.59
2022-12-11T15:37:00.065Z,96151.59
2022-12-11T15:39:26.541Z,96154.59
2022-12-11T15:41:52.930Z,96149.06
2022-12-11T15:44:19.387Z,96159.97
2022-12-11T15:46:45.958Z,96171.91
2022-12-11T15:49:12.315Z,96161.34
2022-12-11T15:51:42.821Z,96170.34
2022-12-11T15:54:10.011Z,96161.75
2022-12-11T15:56:36.393Z,96170.59
2022-12-11T15:59:02.767Z,96170.41
2022-12-11T16:01:29.184Z,96176.88
2022-12-11T16:03:59.186Z,96169.81
2022-12-11T16:06:28.123Z,96174.53
2022-12-11T16:08:54.596Z,96173.69
2022-12-11T16:11:21.007Z,96178.91
2022-12-11T16:13:47.433Z,96190.00
2022-12-11T16:16:13.933Z,96188.44
2022-12-11T16:18:42.592Z,96194.00
2022-12-11T16:21:09.291Z,96191.06
2022-12-11T16:23:35.685Z,96193.41
2022-12-11T16:26:02.120Z,96194.69
2022-12-11T16:28:28.599Z,96197.72
2022-12-11T16:30:58.148Z,96195.50
2022-12-11T16:33:24.566Z,96196.59
2022-12-11T16:35:52.278Z,96194.31
2022-12-11T16:38:18.606Z,96203.16
2022-12-11T16:40:45.022Z,96205.31
2022-12-11T16:43:11.418Z,96192.38
2022-12-11T16:45:37.866Z,96196.69
2022-12-11T16:48:04.258Z,96185.47
2022-12-11T16:50:30.861Z,96187.56
2022-12-11T16:52:57.273Z,96187.19
2022-12-11T16:55:23.723Z,96186.81
2022-12-11T16:57:50.194Z,96180.03
2022-12-11T17:00:16.609Z,96184.97
2022-12-11T17:02:43.098Z,96177.56
2022-12-11T17:05:09.847Z,96185.16
2022-12-11T17:07:36.440Z,96187.44
2022-12-11T17:10:02.830Z,96190.50
2022-12-11T17:12:29.302Z,96185.25
2022-12-11T17:14:55.707Z,96190.19
2022-12-11T17:17:22.137Z,96191.66
2022-12-11T17:19:48.513Z,96197.97
2022-12-11T17:22:14.881Z,96195.13
2022-12-11T17:24:41.265Z,96189.03
2022-12-11T17:27:11.920Z,96195.19
2022-12-11T17:29:38.382Z,96206.38
2022-12-11T17:32:20.366Z,96204.41
2022-12-11T17:34:49.004Z,96209.19
2022-12-11T17:37:15.453Z,96206.13
2022-12-11T17:39:41.846Z,96199.81
2022-12-11T17:44:59.153Z,96207.94
2022-12-11T17:47:26.004Z,96212.34
2022-12-11T17:49:52.393Z,96208.47
2022-12-11T17:52:18.811Z,96211.50
2022-12-11T17:54:47.676Z,96212.34
2022-12-11T17:57:14.126Z,96208.66
2022-12-11T17:59:40.534Z,96217.59
2022-12-11T18:02:09.093Z,96210.19
2022-12-11T18:04:35.470Z,96215.41
2022-12-11T18:07:01.903Z,96222.00
2022-12-11T18:09:28.394Z,96215.50
2022-12-11T18:11:56.078Z,96216.97
2022-12-11T18:14:24.947Z,96218.22
2022-12-11T18:16:51.365Z,96216.78
2022-12-11T18:19:17.884Z,96221.25
2022-12-11T18:21:44.278Z,96215.94
2022-12-11T18:24:10.795Z,96221.06
2022-12-11T18:26:37.183Z,96217.59
2022-12-11T18:29:03.558Z,96222.91
2022-12-11T18:31:29.992Z,96222.38
2022-12-11T18:33:56.419Z,96221.19
2022-12-11T18:36:22.898Z,96222.63
2022-12-11T18:38:50.767Z,96226.94
2022-12-11T18:41:17.275Z,96228.59
2022-12-11T18:43:43.682Z,96225.13
2022-12-11T18:46:10.285Z,96225.47
2022-12-11T18:48:36.780Z,96229.47
2022-12-11T18:51:03.201Z,96236.06
2022-12-11T18:53:29.615Z,96232.84
2022-12-11T18:56:00.351Z,96232.63
2022-12-11T18:58:27.208Z,96226.44
2022-12-11T19:00:53.669Z,96231.56
2022-12-11T19:03:28.302Z,96235.22
2022-12-11T19:05:54.742Z,96229.91
2022-12-11T19:08:21.294Z,96237.06
2022-12-11T19:10:47.805Z,96234.41
2022-12-11T19:13:14.349Z,96239.25
2022-12-11T19:15:40.735Z,96230.28
2022-12-11T19:18:07.169Z,96235.69
2022-12-11T19:20:59.310Z,96236.84
2022-12-11T19:23:22.907Z,96235.66
2022-12-11T19:25:49.314Z,96242.59
2022-12-11T19:28:15.711Z,96238.94
2022-12-11T19:30:44.524Z,96240.97
2022-12-11T19:33:10.865Z,96237.84
2022-12-11T19:35:37.257Z,96244.00
2022-12-11T19:38:03.636Z,96249.97
2022-12-11T19:40:29.964Z,96247.97
2022-12-11T19:42:56.356Z,96242.00
2022-12-11T19:45:22.739Z,96241.19
2022-12-11T19:47:49.323Z,96236.44
2022-12-11T19:50:15.694Z,96237.63
2022-12-11T19:52:46.143Z,96238.72
2022-12-11T19:55:13.190Z,96229.38
2022-12-11T19:57:39.753Z,96231.31
2022-12-11T20:00:07.356Z,96233.38
2022-12-11T20:02:33.791Z,96243.56
2022-12-11T20:05:03.447Z,96240.44
2022-12-11T20:07:30.756Z,96241.47
2022-12-11T20:09:57.302Z,96247.75
2022-12-11T20:12:23.635Z,96244.06
2022-12-11T20:14:50.045Z,96247.38
2022-12-11T20:17:16.554Z,96243.34
2022-12-11T20:19:44.281Z,96249.69
2022-12-11T20:22:10.633Z,96235.22
2022-12-11T20:24:37.126Z,96247.66
2022-12-11T20:27:03.535Z,96246.38
2022-12-11T20:29:29.989Z,96251.03
2022-12-11T20:31:56.396Z,96258.34
2022-12-11T20:34:22.803Z,96259.06
2022-12-11T20:36:49.203Z,96262.72
2022-12-11T20:39:15.646Z,96258.63
2022-12-11T20:41:42.081Z,96265.09
2022-12-11T20:44:08.606Z,96262.50
2022-12-11T20:46:35.024Z,96267.00
2022-12-11T20:49:01.452Z,96268.81
2022-12-11T20:51:27.842Z,96253.91
2022-12-11T20:53:54.261Z,96254.06
2022-12-11T20:56:20.844Z,96244.94
2022-12-11T20:58:47.217Z,96238.00
2022-12-11T21:01:13.633Z,96239.00
2022-12-11T21:03:42.121Z,96235.88
2022-12-11T21:06:08.689Z,96237.13
2022-12-11T21:08:36.382Z,96231.28
2022-12-11T21:11:05.171Z,96234.13
2022-12-11T21:13:31.572Z,96235.66
2022-12-11T21:15:57.990Z,96230.34
2022-12-11T21:18:24.444Z,96235.19
2022-12-11T21:20:50.858Z,96237.19
2022-12-11T21:23:17.211Z,96237.91
2022-12-11T21:25:43.547Z,96238.59
2022-12-11T21:28:09.938Z,96245.25
2022-12-11T21:30:36.288Z,96238.50
2022-12-11T21:33:02.865Z,96239.09
2022-12-11T21:35:29.267Z,96231.06
2022-12-11T21:37:55.621Z,96236.84
2022-12-11T21:40:21.972Z,96235.69
2022-12-11T21:42:48.301Z,96237.66
2022-12-11T21:45:52.067Z,96238.03
2022-12-11T21:48:01.142Z,96242.03
2022-12-11T21:50:27.573Z,96237.88
2022-12-11T21:52:53.953Z,96238.91
2022-12-11T21:55:20.326Z,96243.19
2022-12-11T21:57:46.661Z,96240.91
2022-12-11T22:00:13.021Z,96235.78
2022-12-11T22:02:41.218Z,96242.06
2022-12-11T22:05:07.804Z,96247.53
2022-12-11T22:07:34.169Z,96250.88
2022-12-11T22:10:00.630Z,96252.75
2022-12-11T22:12:26.994Z,96258.50
2022-12-11T22:14:53.341Z,96258.16
2022-12-11T22:17:19.665Z,96256.34
2022-12-11T22:19:46.041Z,96259.50
2022-12-11T22:22:12.398Z,96263.69
2022-12-11T22:24:38.759Z,96257.19
2022-12-11T22:27:05.131Z,96258.03
2022-12-11T22:29:31.564Z,96260.69
2022-12-11T22:31:57.927Z,96260.03
2022-12-11T22:34:24.278Z,96260.88
2022-12-11T22:36:50.688Z,96259.22
2022-12-11T22:39:17.135Z,96264.69
2022-12-11T22:41:43.504Z,96256.25
2022-12-11T22:44:09.869Z,96261.56
2022-12-11T22:46:36.208Z,96260.25
2022-12-11T22:49:02.618Z,96259.97
2022-12-11T22:51:29.024Z,96259.63
2022-12-11T22:53:55.540Z,96256.00
2022-12-11T22:56:21.941Z,96262.28
2022-12-11T22:58:48.350Z,96261.47
2022-12-11T23:01:14.758Z,96249.91
2022-12-11T23:03:41.341Z,96266.25
2022-12-11T23:06:07.692Z,96263.94
2022-12-11T23:08:34.147Z,96264.13
2022-12-11T23:11:00.617Z,96267.75
2022-12-11T23:13:27.042Z,96272.25
2022-12-11T23:15:53.428Z,96274.72
2022-12-11T23:18:19.848Z,96271.41
2022-12-11T23:20:46.234Z,96273.56
2022-12-11T23:23:12.862Z,96278.84
2022-12-11T23:25:39.317Z,96276.31
2022-12-11T23:28:05.734Z,96278.28
2022-12-11T23:30:32.222Z,96276.09
2022-12-11T23:32:58.712Z,96277.09
2022-12-11T23:35:25.081Z,96279.75
2022-12-11T23:37:51.380Z,96281.41
2022-12-11T23:40:17.719Z,96279.91
2022-12-11T23:42:44.051Z,96286.88
2022-12-11T23:45:10.681Z,96275.91
2022-12-11T23:47:37.217Z,96278.88
2022-12-11T23:50:03.578Z,96284.00
2022-12-11T23:52:29.983Z,96283.19
2022-12-11T23:54:56.347Z,96278.72
2022-12-11T23:57:22.743Z,96276.25
2022-12-11T23:59:49.157Z,96273.75
